createdAt,value
2022-10-21T00:00:52.557Z,18.30
2022-10-21T00:03:20.838Z,18.30
2022-10-21T00:05:48.759Z,18.30
2022-10-21T00:08:19.666Z,18.30
2022-10-21T00:10:47.503Z,18.30
2022-10-21T00:13:15.832Z,18.30
2022-10-21T00:15:43.687Z,18.30
2022-10-21T00:18:12.055Z,18.30
2022-10-21T00:20:41.191Z,18.30
2022-10-21T00:23:09.316Z,18.30
2022-10-21T00:25:39.109Z,18.30
2022-10-21T00:28:07.218Z,18.30
2022-10-21T00:30:34.999Z,18.30
2022-10-21T00:33:03.378Z,18.30
2022-10-21T00:35:34.448Z,18.30
2022-10-21T00:38:02.709Z,18.30
2022-10-21T00:40:30.507Z,18.30
2022-10-21T00:42:59.639Z,18.30
2022-10-21T00:45:28.020Z,18.30
2022-10-21T00:47:58.654Z,18.30
2022-10-21T00:50:30.327Z,18.40
2022-10-21T00:52:58.085Z,18.30
2022-10-21T00:55:25.964Z,18.30
2022-10-21T00:57:53.740Z,18.30
2022-10-21T01:00:22.880Z,18.30
2022-10-21T01:02:50.639Z,18.30
2022-10-21T01:05:18.524Z,18.30
2022-10-21T01:07:48.146Z,18.30
2022-10-21T01:10:16.310Z,18.20
2022-10-21T01:12:50.098Z,18.20
2022-10-21T01:15:19.588Z,18.30
2022-10-21T01:17:52.084Z,18.20
2022-10-21T01:20:50.556Z,18.20
2022-10-21T01:23:43.049Z,18.20
2022-10-21T01:26:21.419Z,18.20
2022-10-21T01:28:54.469Z,18.20
2022-10-21T01:31:25.770Z,18.20
2022-10-21T01:33:54.875Z,18.10
2022-10-21T01:36:28.971Z,18.10
2022-10-21T01:39:08.381Z,18.10
2022-10-21T01:41:37.554Z,18.10
2022-10-21T01:44:07.154Z,18.10
2022-10-21T01:46:39.016Z,18.10
2022-10-21T01:49:11.259Z,18.10
2022-10-21T01:51:39.080Z,18.00
2022-10-21T01:54:08.689Z,18.00
2022-10-21T01:56:36.364Z,18.00
2022-10-21T01:59:04.411Z,18.00
2022-10-21T02:01:32.312Z,18.00
2022-10-21T02:04:02.247Z,18.00
2022-10-21T02:06:30.403Z,18.00
2022-10-21T02:08:58.214Z,18.00
2022-10-21T02:11:26.781Z,18.00
2022-10-21T02:13:57.087Z,18.00
2022-10-21T02:16:26.929Z,18.00
2022-10-21T02:18:55.623Z,17.90
2022-10-21T02:21:25.712Z,17.90
2022-10-21T02:23:54.526Z,17.90
2022-10-21T02:26:22.657Z,17.90
2022-10-21T02:28:50.629Z,17.90
2022-10-21T02:31:26.806Z,17.90
2022-10-21T02:34:00.387Z,17.90
2022-10-21T02:36:35.449Z,17.90
2022-10-21T02:39:04.947Z,17.90
2022-10-21T02:41:33.332Z,17.90
2022-10-21T02:44:02.066Z,17.90
2022-10-21T02:46:36.389Z,17.90
2022-10-21T02:49:04.314Z,17.90
2022-10-21T02:51:34.209Z,17.90
2022-10-21T02:54:02.144Z,17.90
2022-10-21T02:58:58.428Z,17.90
2022-10-21T03:01:26.920Z,17.90
2022-10-21T03:03:55.203Z,17.90
2022-10-21T03:06:23.158Z,17.90
2022-10-21T03:08:52.608Z,17.90
2022-10-21T03:11:20.547Z,17.90
2022-10-21T03:13:49.115Z,17.90
2022-10-21T03:18:45.568Z,17.90
2022-10-21T03:21:13.461Z,17.90
2022-10-21T03:23:41.533Z,17.90
2022-10-21T03:26:10.940Z,17.90
2022-10-21T03:28:39.523Z,17.90
2022-10-21T03:31:07.282Z,17.90
2022-10-21T03:33:35.061Z,17.90
2022-10-21T03:36:02.823Z,17.90
2022-10-21T03:38:30.595Z,17.80
2022-10-21T03:40:58.333Z,17.90
2022-10-21T03:43:27.847Z,17.90
2022-10-21T03:45:55.586Z,17.90
2022-10-21T03:48:23.801Z,17.90
2022-10-21T03:50:51.588Z,17.90
2022-10-21T03:53:38.123Z,17.80
2022-10-21T03:56:08.544Z,17.90
2022-10-21T03:58:37.889Z,17.90
2022-10-21T04:01:05.782Z,17.80
2022-10-21T04:03:33.772Z,17.90
2022-10-21T04:06:01.747Z,17.90
2022-10-21T04:08:29.909Z,17.90
2022-10-21T04:10:58.620Z,17.80
2022-10-21T04:13:26.897Z,17.90
2022-10-21T04:15:59.611Z,17.90
2022-10-21T04:18:27.775Z,17.80
2022-10-21T04:20:55.548Z,17.90
2022-10-21T04:23:23.849Z,17.90
2022-10-21T04:25:51.837Z,17.90
2022-10-21T04:28:20.474Z,17.90
2022-10-21T04:30:48.387Z,17.80
2022-10-21T04:33:18.293Z,17.90
2022-10-21T04:35:46.060Z,17.90
2022-10-21T04:38:14.334Z,17.90
2022-10-21T04:40:42.371Z,17.90
2022-10-21T04:43:10.311Z,17.80
2022-10-21T04:45:40.290Z,17.90
2022-10-21T04:48:08.348Z,17.90
2022-10-21T04:50:37.885Z,17.90
2022-10-21T04:53:05.937Z,17.90
2022-10-21T04:55:33.964Z,17.90
2022-10-21T04:58:01.932Z,17.90
2022-10-21T05:00:30.244Z,17.90
2022-10-21T05:02:58.487Z,17.90
2022-10-21T05:05:27.070Z,17.90
2022-10-21T05:07:56.437Z,17.90
2022-10-21T05:10:26.001Z,17.90
2022-10-21T05:12:54.026Z,17.90
2022-10-21T05:15:22.257Z,17.90
2022-10-21T05:17:49.977Z,17.90
2022-10-21T05:20:18.304Z,17.90
2022-10-21T05:22:46.372Z,17.90
2022-10-21T05:25:16.237Z,17.90
2022-10-21T05:27:43.968Z,17.90
2022-10-21T05:30:12.742Z,17.90
2022-10-21T05:32:40.950Z,17.90
2022-10-21T05:35:09.665Z,17.90
2022-10-21T05:37:37.457Z,17.90
2022-10-21T05:40:06.691Z,17.90
2022-10-21T05:42:35.893Z,17.90
2022-10-21T05:45:04.252Z,17.90
2022-10-21T05:47:31.998Z,17.90
2022-10-21T05:50:00.117Z,17.90
2022-10-21T05:52:27.884Z,17.90
2022-10-21T05:54:56.036Z,17.90
2022-10-21T05:57:23.820Z,17.90
2022-10-21T05:59:53.387Z,17.90
2022-10-21T06:02:21.190Z,17.90
2022-10-21T06:04:48.956Z,17.90
2022-10-21T06:07:16.717Z,17.90
2022-10-21T06:09:45.029Z,17.90
2022-10-21T06:12:13.360Z,17.90
2022-10-21T06:14:41.302Z,17.90
2022-10-21T06:17:10.724Z,17.90
2022-10-21T06:19:38.559Z,17.90
2022-10-21T06:22:06.662Z,17.90
2022-10-21T06:24:34.609Z,17.90
2022-10-21T06:27:02.882Z,17.90
2022-10-21T06:29:30.924Z,17.90
2022-10-21T06:31:59.434Z,17.90
2022-10-21T06:34:28.895Z,17.90
2022-10-21T06:36:57.224Z,17.90
2022-10-21T06:39:25.266Z,17.90
2022-10-21T06:41:53.627Z,17.90
2022-10-21T06:44:21.659Z,17.90
2022-10-21T06:46:49.979Z,17.90
2022-10-21T06:49:17.935Z,17.90
2022-10-21T06:51:47.232Z,17.90
2022-10-21T06:54:15.192Z,17.90
2022-10-21T06:56:43.633Z,18.00
2022-10-21T06:59:11.627Z,18.00
2022-10-21T07:01:59.055Z,18.00
2022-10-21T07:04:27.734Z,17.30
2022-10-21T07:06:57.445Z,16.80
2022-10-21T07:09:25.536Z,16.60
2022-10-21T07:11:54.033Z,16.20
2022-10-21T07:14:22.101Z,16.20
2022-10-21T07:16:51.575Z,16.20
2022-10-21T07:19:19.448Z,16.20
2022-10-21T07:21:47.247Z,16.40
2022-10-21T07:24:18.806Z,16.80
2022-10-21T07:26:50.020Z,17.10
2022-10-21T07:29:17.913Z,17.30
2022-10-21T07:31:45.937Z,17.60
2022-10-21T07:34:13.933Z,17.60
2022-10-21T07:36:48.365Z,17.70
2022-10-21T07:39:18.398Z,17.80
2022-10-21T07:41:47.792Z,17.80
2022-10-21T07:44:15.995Z,17.80
2022-10-21T07:46:44.225Z,17.90
2022-10-21T07:49:12.376Z,17.90
2022-10-21T07:51:40.188Z,18.00
2022-10-21T07:54:08.254Z,18.00
2022-10-21T07:56:38.517Z,18.00
2022-10-21T07:59:11.625Z,18.10
2022-10-21T08:01:41.562Z,18.10
2022-10-21T08:04:10.561Z,18.20
2022-10-21T08:06:38.636Z,18.20
2022-10-21T08:09:07.311Z,18.30
2022-10-21T08:11:35.446Z,18.30
2022-10-21T08:14:07.301Z,18.40
2022-10-21T08:16:35.526Z,18.50
2022-10-21T08:19:04.005Z,18.60
2022-10-21T08:21:32.041Z,18.70
2022-10-21T08:23:59.980Z,18.90
2022-10-21T08:26:27.953Z,19.10
2022-10-21T08:28:55.851Z,19.20
2022-10-21T08:31:28.570Z,19.40
2022-10-21T08:33:56.748Z,19.60
2022-10-21T08:36:26.356Z,19.80
2022-10-21T08:38:54.720Z,20.00
2022-10-21T08:41:45.109Z,20.30
2022-10-21T08:44:15.866Z,20.40
2022-10-21T08:46:47.833Z,20.70
2022-10-21T08:49:23.126Z,20.90
2022-10-21T08:51:55.287Z,21.10
2022-10-21T08:54:25.623Z,21.30
2022-10-21T08:56:53.742Z,21.50
2022-10-21T08:59:23.759Z,21.70
2022-10-21T09:01:55.924Z,21.90
2022-10-21T09:04:29.093Z,22.00
2022-10-21T09:06:58.890Z,22.10
2022-10-21T09:09:28.321Z,22.20
2022-10-21T09:12:01.665Z,22.20
2022-10-21T09:14:51.324Z,22.30
2022-10-21T09:17:44.512Z,22.30
2022-10-21T09:20:18.580Z,22.50
2022-10-21T09:22:52.345Z,22.70
2022-10-21T09:25:22.529Z,22.80
2022-10-21T09:27:56.500Z,23.00
2022-10-21T09:30:25.230Z,23.20
2022-10-21T09:32:57.576Z,23.30
2022-10-21T09:35:29.587Z,23.40
2022-10-21T09:37:58.616Z,23.50
2022-10-21T09:40:28.416Z,23.60
2022-10-21T09:42:59.234Z,23.80
2022-10-21T09:45:31.621Z,23.90
2022-10-21T09:48:01.690Z,24.00
2022-10-21T09:50:32.926Z,24.00
2022-10-21T09:53:07.648Z,23.90
2022-10-21T09:55:35.601Z,23.90
2022-10-21T09:58:04.179Z,23.90
2022-10-21T10:00:46.817Z,24.00
2022-10-21T10:03:30.667Z,24.00
2022-10-21T10:05:58.652Z,24.00
2022-10-21T10:08:30.879Z,24.10
2022-10-21T10:11:06.512Z,24.20
2022-10-21T10:13:34.579Z,24.30
2022-10-21T10:16:24.230Z,24.30
2022-10-21T10:18:54.936Z,24.40
2022-10-21T10:21:23.261Z,24.40
2022-10-21T10:23:54.478Z,24.50
2022-10-21T10:26:24.861Z,24.60
2022-10-21T10:28:54.984Z,24.70
2022-10-21T10:31:31.625Z,24.70
2022-10-21T10:34:03.609Z,24.80
2022-10-21T10:36:33.616Z,24.80
2022-10-21T10:39:01.857Z,24.80
2022-10-21T10:41:35.912Z,24.80
2022-10-21T10:44:08.834Z,24.80
2022-10-21T10:46:37.438Z,24.90
2022-10-21T10:49:21.266Z,24.80
2022-10-21T10:51:50.023Z,24.80
2022-10-21T10:54:19.428Z,24.80
2022-10-21T10:56:50.651Z,24.90
2022-10-21T10:59:22.253Z,24.90
2022-10-21T11:01:52.738Z,24.90
2022-10-21T11:04:24.610Z,25.00
2022-10-21T11:06:58.316Z,25.00
2022-10-21T11:09:27.508Z,25.00
2022-10-21T11:11:56.712Z,25.00
2022-10-21T11:14:24.503Z,25.10
2022-10-21T11:17:01.338Z,25.10
2022-10-21T11:19:38.979Z,25.20
2022-10-21T11:22:13.262Z,25.20
2022-10-21T11:25:02.433Z,25.30
2022-10-21T11:27:42.547Z,25.30
2022-10-21T11:30:12.755Z,25.30
2022-10-21T11:32:48.754Z,25.30
2022-10-21T11:35:26.720Z,25.40
2022-10-21T11:38:00.251Z,25.40
2022-10-21T11:40:32.950Z,25.50
2022-10-21T11:43:04.332Z,25.60
2022-10-21T11:45:37.622Z,25.70
2022-10-21T11:48:13.148Z,25.80
2022-10-21T11:50:45.675Z,25.80
2022-10-21T11:53:22.430Z,25.70
2022-10-21T11:55:54.260Z,25.70
2022-10-21T11:58:29.595Z,25.80
2022-10-21T12:01:04.300Z,25.80
2022-10-21T12:03:48.734Z,25.80
2022-10-21T12:06:23.681Z,25.80
2022-10-21T12:08:53.514Z,25.80
2022-10-21T12:11:23.291Z,25.80
2022-10-21T12:13:52.458Z,25.90
2022-10-21T12:16:21.294Z,25.90
2022-10-21T12:18:51.263Z,25.90
2022-10-21T12:21:22.787Z,25.90
2022-10-21T12:23:53.212Z,25.90
2022-10-21T12:26:22.516Z,25.90
2022-10-21T12:28:52.575Z,26.00
2022-10-21T12:31:29.273Z,25.90
2022-10-21T12:33:57.204Z,25.90
2022-10-21T12:36:45.993Z,25.90
2022-10-21T12:39:48.844Z,25.80
2022-10-21T12:42:18.550Z,25.70
2022-10-21T12:44:46.722Z,25.60
2022-10-21T12:47:25.737Z,25.40
2022-10-21T12:50:07.910Z,25.40
2022-10-21T12:52:38.922Z,25.40
2022-10-21T12:55:08.651Z,25.30
2022-10-21T12:57:37.412Z,25.20
2022-10-21T13:00:44.163Z,25.20
2022-10-21T13:03:12.284Z,25.20
2022-10-21T13:05:58.817Z,25.10
2022-10-21T13:08:28.356Z,25.10
2022-10-21T13:11:14.155Z,25.10
2022-10-21T13:13:42.193Z,25.10
2022-10-21T13:16:30.031Z,25.00
2022-10-21T13:19:00.019Z,25.00
2022-10-21T13:21:34.485Z,25.00
2022-10-21T13:24:14.983Z,25.00
2022-10-21T13:26:43.526Z,25.00
2022-10-21T13:29:34.096Z,24.90
2022-10-21T13:32:32.460Z,24.90
2022-10-21T13:35:02.898Z,24.90
2022-10-21T13:37:32.591Z,24.80
2022-10-21T13:40:03.372Z,24.80
2022-10-21T13:42:34.456Z,24.80
2022-10-21T13:45:04.558Z,24.80
2022-10-21T13:47:33.449Z,24.80
2022-10-21T13:50:06.731Z,24.80
2022-10-21T13:52:34.467Z,24.80
2022-10-21T13:55:04.721Z,24.80
2022-10-21T13:57:33.597Z,24.70
2022-10-21T14:00:02.446Z,24.60
2022-10-21T14:02:30.686Z,24.50
2022-10-21T14:04:58.458Z,24.40
2022-10-21T14:07:26.262Z,24.60
2022-10-21T14:09:55.551Z,24.70
2022-10-21T14:12:26.097Z,24.80
2022-10-21T14:14:54.231Z,24.80
2022-10-21T14:17:23.965Z,24.80
2022-10-21T14:19:53.150Z,24.90
2022-10-21T14:22:22.213Z,24.90
2022-10-21T14:24:53.841Z,24.90
2022-10-21T14:27:23.678Z,24.90
2022-10-21T14:29:53.180Z,24.90
2022-10-21T14:32:22.191Z,24.90
2022-10-21T14:35:00.911Z,24.80
2022-10-21T14:37:28.815Z,24.80
2022-10-21T14:40:10.555Z,24.80
2022-10-21T14:42:38.685Z,24.80
2022-10-21T14:45:16.647Z,24.70
2022-10-21T14:47:49.663Z,24.70
2022-10-21T14:50:19.848Z,24.70
2022-10-21T14:52:48.002Z,24.60
2022-10-21T14:55:17.361Z,24.60
2022-10-21T14:57:47.529Z,24.60
2022-10-21T15:00:29.091Z,24.60
2022-10-21T15:02:58.697Z,24.50
2022-10-21T15:05:36.079Z,24.50
2022-10-21T15:08:28.861Z,24.40
2022-10-21T15:11:23.728Z,24.40
2022-10-21T15:14:25.673Z,24.40
2022-10-21T15:16:56.085Z,24.40
2022-10-21T15:19:25.561Z,24.30
2022-10-21T15:21:55.265Z,24.30
2022-10-21T15:24:24.737Z,24.30
2022-10-21T15:26:53.330Z,24.30
2022-10-21T15:29:27.348Z,24.30
2022-10-21T15:31:57.999Z,24.30
2022-10-21T15:34:26.123Z,24.20
2022-10-21T15:36:54.489Z,24.20
2022-10-21T15:39:22.459Z,24.20
2022-10-21T15:41:53.734Z,24.10
2022-10-21T15:44:23.047Z,24.10
2022-10-21T15:46:57.945Z,24.10
2022-10-21T15:49:27.949Z,24.10
2022-10-21T15:51:55.713Z,24.10
2022-10-21T15:54:23.576Z,24.00
2022-10-21T15:56:52.440Z,24.00
2022-10-21T15:59:21.990Z,24.00
2022-10-21T16:01:50.223Z,23.90
2022-10-21T16:04:18.533Z,23.90
2022-10-21T16:06:48.938Z,23.80
2022-10-21T16:09:19.804Z,23.80
2022-10-21T16:11:58.952Z,23.80
2022-10-21T16:14:29.507Z,23.70
2022-10-21T16:16:58.446Z,23.70
2022-10-21T16:19:27.046Z,23.60
2022-10-21T16:21:56.831Z,23.60
2022-10-21T16:24:25.256Z,23.50
2022-10-21T16:26:53.179Z,23.50
2022-10-21T16:29:22.116Z,23.50
2022-10-21T16:31:50.128Z,23.40
2022-10-21T16:34:18.293Z,23.40
2022-10-21T16:36:46.109Z,23.40
2022-10-21T16:39:16.092Z,23.30
2022-10-21T16:41:44.077Z,23.30
2022-10-21T16:44:12.272Z,23.30
2022-10-21T16:46:41.603Z,23.20
2022-10-21T16:49:13.129Z,23.20
2022-10-21T16:51:41.491Z,23.20
2022-10-21T16:54:09.508Z,23.10
2022-10-21T16:56:39.110Z,23.10
2022-10-21T16:59:07.825Z,23.10
2022-10-21T17:01:35.738Z,23.10
2022-10-21T17:04:03.827Z,23.10
2022-10-21T17:06:31.907Z,23.10
2022-10-21T17:09:00.035Z,23.10
2022-10-21T17:11:31.950Z,23.00
2022-10-21T17:14:01.422Z,23.00
2022-10-21T17:16:29.715Z,23.00
2022-10-21T17:18:57.489Z,23.00
2022-10-21T17:21:26.648Z,23.00
2022-10-21T17:23:54.461Z,22.90
2022-10-21T17:26:22.281Z,22.90
2022-10-21T17:28:50.529Z,22.90
2022-10-21T17:31:21.343Z,22.90
2022-10-21T17:33:49.455Z,22.90
2022-10-21T17:36:17.700Z,22.80
2022-10-21T17:38:45.686Z,22.80
2022-10-21T17:41:14.560Z,22.80
2022-10-21T17:43:42.669Z,22.80
2022-10-21T17:46:11.369Z,22.80
2022-10-21T17:48:40.704Z,22.80
2022-10-21T17:51:09.349Z,22.70
2022-10-21T17:53:37.353Z,22.80
2022-10-21T17:56:07.344Z,22.70
2022-10-21T17:58:35.458Z,22.70
2022-10-21T18:01:07.663Z,22.70
2022-10-21T18:03:35.966Z,22.70
2022-10-21T18:06:07.469Z,22.70
2022-10-21T18:08:35.464Z,22.60
2022-10-21T18:11:03.415Z,22.60
2022-10-21T18:13:31.588Z,22.60
2022-10-21T18:16:03.312Z,22.50
2022-10-21T18:18:31.223Z,22.60
2022-10-21T18:21:02.179Z,22.60
2022-10-21T18:23:31.285Z,22.60
2022-10-21T18:26:03.754Z,22.50
2022-10-21T18:28:32.340Z,22.50
2022-10-21T18:31:00.303Z,22.50
2022-10-21T18:33:28.423Z,22.50
2022-10-21T18:35:57.035Z,22.50
2022-10-21T18:38:25.029Z,22.50
2022-10-21T18:41:02.148Z,22.50
2022-10-21T18:43:36.913Z,22.40
2022-10-21T18:46:04.915Z,22.50
2022-10-21T18:48:32.696Z,22.40
2022-10-21T18:51:06.187Z,22.40
2022-10-21T18:53:35.710Z,22.40
2022-10-21T18:56:09.078Z,22.40
2022-10-21T18:58:38.015Z,22.40
2022-10-21T19:01:06.277Z,22.40
2022-10-21T19:03:34.958Z,22.40
2022-10-21T19:06:16.245Z,22.40
2022-10-21T19:08:44.372Z,22.40
2022-10-21T19:11:13.918Z,22.40
2022-10-21T19:13:41.926Z,22.30
2022-10-21T19:16:11.164Z,22.30
2022-10-21T19:18:39.167Z,22.30
2022-10-21T19:21:07.769Z,22.30
2022-10-21T19:23:36.047Z,22.30
2022-10-21T19:26:04.182Z,22.30
2022-10-21T19:28:35.984Z,22.30
2022-10-21T19:31:03.906Z,22.30
2022-10-21T19:33:32.609Z,22.30
2022-10-21T19:36:00.883Z,22.30
2022-10-21T19:38:44.897Z,22.30
2022-10-21T19:41:14.329Z,22.30
2022-10-21T19:43:44.177Z,22.30
2022-10-21T19:46:12.848Z,22.30
2022-10-21T19:48:41.152Z,22.30
2022-10-21T19:51:15.120Z,22.20
2022-10-21T19:53:45.090Z,22.20
2022-10-21T19:56:13.163Z,22.20
2022-10-21T19:58:41.249Z,22.20
2022-10-21T20:01:11.927Z,22.20
2022-10-21T20:03:40.929Z,22.10
2022-10-21T20:06:09.167Z,22.10
2022-10-21T20:08:38.590Z,22.20
2022-10-21T20:11:08.392Z,22.10
2022-10-21T20:13:36.250Z,22.10
2022-10-21T20:16:04.605Z,22.00
2022-10-21T20:18:34.077Z,22.00
2022-10-21T20:21:02.783Z,22.00
2022-10-21T20:23:30.814Z,22.00
2022-10-21T20:25:59.110Z,22.00
2022-10-21T20:28:27.073Z,22.00
2022-10-21T20:30:58.527Z,21.90
2022-10-21T20:33:26.478Z,21.90
2022-10-21T20:35:55.973Z,21.80
2022-10-21T20:38:23.831Z,21.80
2022-10-21T20:40:54.882Z,21.80
2022-10-21T20:43:22.633Z,21.80
2022-10-21T20:45:50.475Z,21.80
2022-10-21T20:48:18.268Z,21.80
2022-10-21T20:50:46.096Z,21.70
2022-10-21T20:53:15.482Z,21.70
2022-10-21T20:55:45.528Z,21.70
2022-10-21T20:58:13.933Z,21.70
2022-10-21T21:00:44.870Z,21.60
2022-10-21T21:03:14.727Z,21.60
2022-10-21T21:05:43.082Z,21.60
2022-10-21T21:08:11.140Z,21.60
2022-10-21T21:10:40.604Z,21.60
2022-10-21T21:13:08.715Z,21.50
2022-10-21T21:15:36.881Z,21.50
2022-10-21T21:18:11.592Z,21.50
2022-10-21T21:20:39.536Z,21.50
2022-10-21T21:23:07.313Z,21.50
2022-10-21T21:25:35.122Z,21.40
2022-10-21T21:28:04.215Z,21.40
2022-10-21T21:30:32.390Z,21.40
2022-10-21T21:33:00.119Z,21.40
2022-10-21T21:35:27.917Z,21.30
2022-10-21T21:37:55.836Z,21.30
2022-10-21T21:40:23.863Z,21.30
2022-10-21T21:42:51.724Z,21.30
2022-10-21T21:45:21.174Z,21.30
2022-10-21T21:47:49.319Z,21.30
2022-10-21T21:50:17.790Z,21.20
2022-10-21T21:52:46.337Z,21.20
2022-10-21T21:55:15.169Z,21.20
2022-10-21T21:57:43.307Z,21.20
2022-10-21T22:00:13.179Z,21.20
2022-10-21T22:02:42.956Z,21.10
2022-10-21T22:05:11.874Z,21.10
2022-10-21T22:07:40.197Z,21.10
2022-10-21T22:10:08.848Z,21.00
2022-10-21T22:12:36.886Z,21.00
2022-10-21T22:15:05.529Z,21.00
2022-10-21T22:17:33.530Z,21.00
2022-10-21T22:20:03.142Z,21.00
2022-10-21T22:22:31.066Z,21.00
2022-10-21T22:24:59.204Z,21.00
2022-10-21T22:27:27.112Z,20.90
2022-10-21T22:29:55.047Z,20.90
2022-10-21T22:32:23.087Z,21.00
2022-10-21T22:34:51.112Z,20.90
2022-10-21T22:37:20.589Z,20.90
2022-10-21T22:39:48.376Z,20.80
2022-10-21T22:42:16.180Z,20.80
2022-10-21T22:44:43.915Z,20.80
2022-10-21T22:47:11.684Z,20.80
2022-10-21T22:49:39.443Z,20.80
2022-10-21T22:52:07.327Z,20.70
2022-10-21T22:54:49.211Z,20.80
2022-10-21T22:57:17.954Z,20.70
2022-10-21T22:59:50.646Z,20.70
2022-10-21T23:02:21.589Z,20.80
2022-10-21T23:04:49.633Z,20.70
2022-10-21T23:07:17.616Z,20.70
2022-10-21T23:09:46.990Z,20.70
2022-10-21T23:12:15.498Z,20.70
2022-10-21T23:14:43.444Z,20.60
2022-10-21T23:17:11.772Z,20.70
2022-10-21T23:19:39.804Z,20.60
2022-10-21T23:22:07.878Z,20.60
2022-10-21T23:24:36.385Z,20.60
2022-10-21T23:27:06.209Z,20.60
2022-10-21T23:29:34.179Z,20.50
2022-10-21T23:32:02.330Z,20.50
2022-10-21T23:34:30.393Z,20.60
2022-10-21T23:36:58.394Z,20.50
2022-10-21T23:39:26.430Z,20.50
2022-10-21T23:41:54.690Z,20.50
2022-10-21T23:44:24.665Z,20.50
2022-10-21T23:46:52.596Z,20.50
2022-10-21T23:49:20.843Z,20.50
2022-10-21T23:51:48.882Z,20.40
2022-10-21T23:54:25.522Z,20.50
2022-10-21T23:56:53.439Z,20.40
2022-10-21T23:59:22.150Z,20.40
